Time;durP1;ratioP1;P1;durP2;ratioP2;P2;SDS_P1;SDS_P2;PMS_P1;PMS_P2;Temp;Humidity;BMP_temperature;BMP_pressure;BME280_temperature;BME280_humidity;BME280_pressure;Samples;Min_cycle;Max_cycle;Signal;HPM_P1;HPM_P2
2023/06/19 03:00:54;;;;;;;7.22;6.63;;;23.20;83.30;;;;;;5580163;23;20236;-69
2023/06/19 03:03:20;;;;;;;7.95;7.40;;;23.20;83.40;;;;;;4877278;29;20550;-70
2023/06/19 03:05:45;;;;;;;6.93;6.28;;;23.10;83.20;;;;;;4872135;29;20192;-69
2023/06/19 03:08:11;;;;;;;8.02;7.30;;;23.10;83.50;;;;;;4875482;29;20188;-70
2023/06/19 03:10:37;;;;;;;7.40;6.85;;;23.10;83.70;;;;;;4877130;29;20215;-69
2023/06/19 03:13:03;;;;;;;7.10;6.60;;;23.00;84.00;;;;;;4895182;29;20582;-69
2023/06/19 03:15:28;;;;;;;7.00;6.43;;;23.00;84.10;;;;;;4864266;24;20717;-67
2023/06/19 03:17:54;;;;;;;8.13;7.53;;;23.00;84.20;;;;;;4856688;29;20196;-67
2023/06/19 03:20:20;;;;;;;8.93;8.32;;;23.00;84.60;;;;;;4858768;29;20185;-67
2023/06/19 03:22:46;;;;;;;9.68;8.98;;;23.00;85.30;;;;;;4857536;29;20193;-67
2023/06/19 03:25:12;;;;;;;13.02;12.00;;;22.90;85.30;;;;;;4853688;29;20209;-67
2023/06/19 03:27:38;;;;;;;13.38;12.30;;;22.90;86.10;;;;;;4858304;29;20196;-67
2023/06/19 03:30:08;;;;;;;17.23;16.10;;;22.90;86.30;;;;;;4842037;29;20203;-67
2023/06/19 03:32:34;;;;;;;15.95;14.65;;;22.90;86.70;;;;;;4858659;29;20227;-67
2023/06/19 03:35:01;;;;;;;19.63;18.45;;;22.80;86.40;;;;;;4853264;29;20702;-67
2023/06/19 03:37:26;;;;;;;20.60;19.35;;;22.80;86.80;;;;;;4833128;29;20194;-68
2023/06/19 03:39:52;;;;;;;24.55;23.05;;;22.90;86.80;;;;;;4856796;29;20212;-68
2023/06/19 03:42:18;;;;;;;45.10;42.70;;;22.90;87.30;;;;;;4857555;29;20669;-68
2023/06/19 03:44:44;;;;;;;56.88;53.78;;;22.90;88.50;;;;;;4855447;29;20224;-68
2023/06/19 03:47:09;;;;;;;57.42;54.30;;;22.90;88.90;;;;;;4857961;29;20291;-68
2023/06/19 03:49:35;;;;;;;60.47;57.08;;;22.80;89.10;;;;;;4858472;29;20200;-68
2023/06/19 03:52:02;;;;;;;58.80;55.55;;;22.80;89.20;;;;;;4856368;29;20616;-68
2023/06/19 03:54:27;;;;;;;61.83;58.50;;;22.80;89.40;;;;;;4868794;29;20221;-69
2023/06/19 03:56:53;;;;;;;61.92;58.53;;;22.80;89.50;;;;;;4863723;29;20783;-68
2023/06/19 03:59:19;;;;;;;63.88;60.55;;;22.80;89.80;;;;;;4846397;29;20186;-69
2023/06/19 04:01:44;;;;;;;86.35;81.80;;;22.90;90.00;;;;;;4856479;29;20716;-68
2023/06/19 04:04:10;;;;;;;93.40;88.60;;;22.90;90.20;;;;;;4849017;29;20205;-68
2023/06/19 04:06:36;;;;;;;110.50;104.80;;;22.90;90.20;;;;;;4848826;29;20194;-68
2023/06/19 04:09:02;;;;;;;133.95;126.95;;;22.90;90.40;;;;;;4850378;29;20228;-68
2023/06/19 04:11:28;;;;;;;263.60;249.98;;;22.90;90.70;;;;;;4849119;29;20194;-68
2023/06/19 04:13:53;;;;;;;132.48;125.32;;;22.80;92.10;;;;;;4856186;29;20217;-68
2023/06/19 04:16:19;;;;;;;76.80;72.45;;;22.80;94.10;;;;;;4857279;29;20234;-69
2023/06/19 04:18:45;;;;;;;29.77;28.02;;;22.60;94.80;;;;;;4857538;29;20217;-68
2023/06/19 04:21:12;;;;;;;33.58;31.58;;;22.40;96.30;;;;;;4857012;29;20240;-68
2023/06/19 04:23:37;;;;;;;25.63;24.08;;;22.20;98.40;;;;;;4858209;29;20209;-68
2023/06/19 04:26:03;;;;;;;20.65;19.00;;;22.10;99.50;;;;;;4845139;29;20232;-68
2023/06/19 04:28:29;;;;;;;26.75;25.10;;;22.00;99.90;;;;;;4861137;29;20241;-68
2023/06/19 04:31:00;;;;;;;17.70;16.63;;;22.10;99.90;;;;;;4861514;29;20197;-69
2023/06/19 04:33:28;;;;;;;14.45;13.45;;;22.20;99.90;;;;;;4845012;29;20192;-68
2023/06/19 04:35:53;;;;;;;10.35;9.75;;;22.30;99.90;;;;;;4861311;29;20216;-68
2023/06/19 04:38:23;;;;;;;12.95;12.25;;;22.40;99.90;;;;;;4861073;29;20200;-69
2023/06/19 04:40:50;;;;;;;22.38;21.17;;;22.60;99.90;;;;;;4844759;29;20185;-68
2023/06/19 04:43:16;;;;;;;17.90;16.90;;;22.70;99.90;;;;;;4861406;29;20253;-68
2023/06/19 04:45:42;;;;;;;8.63;8.13;;;22.70;99.90;;;;;;4861283;29;20201;-69
2023/06/19 04:48:08;;;;;;;18.58;17.58;;;22.80;99.90;;;;;;4861162;29;20193;-68
2023/06/19 04:50:34;;;;;;;41.35;39.15;;;22.90;99.90;;;;;;4861121;29;20203;-68
2023/06/19 04:53:00;;;;;;;98.93;94.15;;;23.00;99.70;;;;;;4853137;29;20266;-67
2023/06/19 04:55:26;;;;;;;174.10;165.55;;;23.10;99.60;;;;;;4847713;29;20217;-67
2023/06/19 04:57:52;;;;;;;235.30;223.60;;;23.10;99.40;;;;;;4854021;29;20193;-67
2023/06/19 05:00:23;;;;;;;288.30;273.73;;;23.20;99.50;;;;;;4860890;29;20196;-67
2023/06/19 05:02:49;;;;;;;307.33;291.42;;;23.30;99.30;;;;;;4860884;29;20200;-67
2023/06/19 05:05:16;;;;;;;310.42;294.00;;;23.30;99.10;;;;;;4859307;29;20211;-67
2023/06/19 05:07:42;;;;;;;301.63;285.98;;;23.40;98.80;;;;;;4860519;29;20205;-67
2023/06/19 05:10:08;;;;;;;265.77;252.13;;;23.40;98.90;;;;;;4860916;29;20197;-67
2023/06/19 05:12:35;;;;;;;247.75;235.18;;;23.40;98.90;;;;;;4844578;29;20345;-67
2023/06/19 05:15:01;;;;;;;260.23;246.50;;;23.40;98.90;;;;;;4860353;29;20655;-68
2023/06/19 05:17:27;;;;;;;249.57;237.00;;;23.30;98.90;;;;;;4860012;29;20714;-67
2023/06/19 05:19:53;;;;;;;254.43;241.55;;;23.30;98.80;;;;;;4860341;29;20197;-67
2023/06/19 05:22:21;;;;;;;244.70;232.05;;;23.20;98.90;;;;;;4860694;29;20201;-67
2023/06/19 05:24:47;;;;;;;265.45;251.77;;;23.30;98.80;;;;;;4859928;29;20277;-67
2023/06/19 05:27:13;;;;;;;249.45;236.77;;;23.30;99.20;;;;;;4860190;29;20201;-68
2023/06/19 05:29:38;;;;;;;273.52;259.27;;;23.40;98.80;;;;;;4860347;29;20276;-68
2023/06/19 05:32:05;;;;;;;274.05;260.23;;;23.50;99.20;;;;;;4860163;29;20669;-67
2023/06/19 05:34:30;;;;;;;219.10;207.98;;;23.60;99.10;;;;;;4859890;29;20766;-67
2023/06/19 05:36:57;;;;;;;133.25;126.55;;;23.80;98.80;;;;;;4860058;29;20281;-68
2023/06/19 05:39:23;;;;;;;69.10;65.28;;;23.90;98.50;;;;;;4873983;29;20225;-67
2023/06/19 05:41:49;;;;;;;34.72;32.92;;;24.10;98.10;;;;;;4864833;29;20200;-67
2023/06/19 05:44:16;;;;;;;23.15;21.90;;;24.30;97.50;;;;;;4860315;29;20721;-67
2023/06/19 05:46:42;;;;;;;6.50;6.10;;;24.70;96.80;;;;;;4859844;29;20197;-67
2023/06/19 05:49:08;;;;;;;8.10;7.60;;;25.50;95.80;;;;;;4859742;29;20203;-66
2023/06/19 05:51:34;;;;;;;7.85;7.15;;;26.10;94.10;;;;;;4860072;29;20669;-66
2023/06/19 05:54:03;;;;;;;10.30;9.75;;;26.00;93.20;;;;;;4859584;29;20216;-66
2023/06/19 05:56:32;;;;;;;12.95;12.10;;;25.90;93.80;;;;;;4859832;29;20239;-66
2023/06/19 05:58:59;;;;;;;11.75;10.82;;;25.70;93.70;;;;;;4843098;29;20282;-66
2023/06/19 06:01:27;;;;;;;12.05;11.35;;;25.60;94.00;;;;;;4859493;29;20192;-66
2023/06/19 06:03:54;;;;;;;13.98;13.05;;;25.60;94.30;;;;;;4859817;29;20217;-66
2023/06/19 06:06:20;;;;;;;16.13;15.07;;;25.60;93.80;;;;;;4859608;29;20315;-66
2023/06/19 06:08:46;;;;;;;15.85;14.68;;;25.50;94.00;;;;;;4858980;29;20196;-66
2023/06/19 06:11:12;;;;;;;15.80;14.85;;;25.50;93.90;;;;;;4859726;29;20229;-66
2023/06/19 06:13:37;;;;;;;13.73;12.93;;;25.40;94.10;;;;;;4859693;29;20648;-66
2023/06/19 06:16:03;;;;;;;13.23;12.50;;;25.50;94.10;;;;;;4859103;29;20221;-66
2023/06/19 06:18:29;;;;;;;13.02;12.30;;;25.40;94.20;;;;;;4859322;29;20220;-67
2023/06/19 06:20:55;;;;;;;12.95;12.25;;;25.50;94.50;;;;;;4842683;29;20244;-65
2023/06/19 06:23:20;;;;;;;17.25;16.15;;;25.60;94.10;;;;;;4859152;29;20267;-65
2023/06/19 06:25:46;;;;;;;16.77;15.43;;;25.80;93.70;;;;;;4859140;29;20200;-65
2023/06/19 06:28:12;;;;;;;15.10;14.30;;;26.00;93.60;;;;;;4842615;29;20244;-66
2023/06/19 06:30:38;;;;;;;10.45;9.80;;;26.10;93.40;;;;;;4859042;29;20197;-65
2023/06/19 06:33:04;;;;;;;12.45;11.57;;;26.30;93.30;;;;;;4842874;29;20240;-65
2023/06/19 06:35:30;;;;;;;12.63;11.90;;;26.30;93.50;;;;;;4858951;29;20252;-65
2023/06/19 06:37:56;;;;;;;6.05;5.60;;;26.50;93.50;;;;;;4858494;29;20224;-66
2023/06/19 06:40:22;;;;;;;7.57;5.85;;;26.60;92.40;;;;;;4859262;29;20189;-66
2023/06/19 06:42:49;;;;;;;9.48;8.77;;;26.90;92.30;;;;;;4859045;29;20287;-65
2023/06/19 06:45:14;;;;;;;8.80;8.30;;;27.30;91.60;;;;;;4842342;29;20212;-65
2023/06/19 06:47:40;;;;;;;6.72;6.13;;;27.70;90.80;;;;;;4858314;29;20197;-65
2023/06/19 06:50:07;;;;;;;12.23;11.38;;;28.10;90.70;;;;;;4858994;29;20196;-66
2023/06/19 06:52:33;;;;;;;25.48;23.85;;;28.10;89.30;;;;;;4858649;29;20228;-66
2023/06/19 06:54:59;;;;;;;15.60;14.70;;;28.00;89.20;;;;;;4858878;29;20244;-66
2023/06/19 06:57:25;;;;;;;9.40;8.80;;;27.40;90.50;;;;;;4858746;29;20197;-66
2023/06/19 06:59:50;;;;;;;5.60;5.35;;;27.20;90.90;;;;;;4858962;29;20221;-66
2023/06/19 07:02:16;;;;;;;6.47;6.07;;;27.10;91.10;;;;;;4842233;29;20197;-66
2023/06/19 07:04:42;;;;;;;5.47;5.15;;;27.10;91.00;;;;;;4858737;29;20303;-66
2023/06/19 07:07:08;;;;;;;12.75;12.13;;;27.80;90.60;;;;;;4858663;29;20208;-66
2023/06/19 07:09:34;;;;;;;36.90;35.13;;;28.40;89.40;;;;;;4842026;29;20645;-66
2023/06/19 07:12:04;;;;;;;37.50;35.45;;;29.20;87.80;;;;;;4858849;29;20661;-66
2023/06/19 07:14:30;;;;;;;10.25;9.75;;;30.10;84.70;;;;;;4858688;29;20233;-66
2023/06/19 07:16:55;;;;;;;24.98;23.75;;;30.90;80.70;;;;;;4858204;29;20197;-66
2023/06/19 07:19:21;;;;;;;54.03;51.30;;;31.00;79.50;;;;;;4858909;29;20192;-66
2023/06/19 07:21:49;;;;;;;102.00;97.18;;;31.30;77.80;;;;;;4853874;29;20190;-80
2023/06/19 07:24:15;;;;;;;105.32;100.20;;;31.70;76.20;;;;;;4861123;29;20216;-81
2023/06/19 07:26:41;;;;;;;94.78;90.25;;;31.80;75.00;;;;;;4842598;29;20654;-79
2023/06/19 07:29:06;;;;;;;105.38;100.38;;;31.50;75.80;;;;;;4844517;29;20805;-79
2023/06/19 07:31:32;;;;;;;102.82;97.85;;;31.10;76.80;;;;;;4844055;29;20196;-80
2023/06/19 07:33:58;;;;;;;119.50;113.55;;;30.50;76.90;;;;;;4844398;29;20220;-80
2023/06/19 07:36:24;;;;;;;58.28;55.40;;;29.80;80.00;;;;;;4860720;29;20264;-80
2023/06/19 07:38:50;;;;;;;17.27;16.38;;;29.30;80.30;;;;;;4843649;29;20217;-81
2023/06/19 07:41:15;;;;;;;10.98;10.40;;;29.30;80.90;;;;;;4861568;29;20218;-81
2023/06/19 07:43:41;;;;;;;22.75;21.45;;;29.90;80.50;;;;;;4857132;29;20205;-81
2023/06/19 07:46:07;;;;;;;81.53;77.57;;;31.00;77.80;;;;;;4865651;29;20204;-81
2023/06/19 07:48:33;;;;;;;59.65;56.40;;;32.00;75.30;;;;;;4850558;29;20200;-81
2023/06/19 07:50:58;;;;;;;20.40;19.40;;;32.80;72.20;;;;;;4860451;29;20204;-81
2023/06/19 07:53:24;;;;;;;10.30;9.80;;;32.70;72.30;;;;;;4845275;29;20202;-81
2023/06/19 07:55:50;;;;;;;16.55;15.65;;;32.20;71.90;;;;;;4837942;29;20217;-81
2023/06/19 07:58:16;;;;;;;64.47;61.40;;;31.30;72.90;;;;;;4863159;29;20200;-82
2023/06/19 08:00:42;;;;;;;96.50;91.85;;;30.50;75.70;;;;;;4865467;29;20197;-81
2023/06/19 08:03:08;;;;;;;66.00;62.78;;;29.90;77.30;;;;;;4849025;29;20203;-82
2023/06/19 08:05:33;;;;;;;51.13;48.58;;;29.60;77.40;;;;;;4865534;29;20239;-81
2023/06/19 08:08:00;;;;;;;26.05;24.80;;;29.30;78.30;;;;;;4865109;29;20220;-82
2023/06/19 08:10:25;;;;;;;13.23;12.55;;;29.30;78.70;;;;;;4870164;29;20229;-81
2023/06/19 08:12:51;;;;;;;11.90;11.30;;;29.40;78.60;;;;;;4866073;29;20196;-82
2023/06/19 08:15:17;;;;;;;53.80;50.88;;;30.20;77.20;;;;;;4850129;29;20228;-82
2023/06/19 08:17:43;;;;;;;59.35;56.38;;;30.60;75.70;;;;;;4850876;29;20200;-82
2023/06/19 08:20:09;;;;;;;61.25;58.28;;;30.50;75.30;;;;;;4868019;29;20197;-82
2023/06/19 08:22:35;;;;;;;59.40;56.45;;;30.50;75.80;;;;;;4850310;29;20212;-82
2023/06/19 08:25:02;;;;;;;73.07;69.60;;;30.20;75.40;;;;;;4849750;29;20224;-82
2023/06/19 08:27:28;;;;;;;42.58;40.50;;;29.90;76.00;;;;;;4850506;29;20659;-82
2023/06/19 08:29:54;;;;;;;29.90;28.50;;;29.70;77.70;;;;;;4867831;29;20269;-82
2023/06/19 08:32:20;;;;;;;13.85;13.20;;;29.50;76.80;;;;;;4875010;29;20200;-82
2023/06/19 08:34:45;;;;;;;8.13;7.72;;;29.10;78.20;;;;;;4848964;29;20221;-82
2023/06/19 08:37:11;;;;;;;6.43;6.13;;;29.00;78.50;;;;;;4826193;29;20182;-82
2023/06/19 08:39:40;;;;;;;5.97;5.78;;;29.00;78.30;;;;;;4843988;29;20196;-82
2023/06/19 08:42:07;;;;;;;6.85;6.45;;;29.60;78.40;;;;;;4849572;29;20185;-83
2023/06/19 08:44:34;;;;;;;25.35;24.02;;;30.40;76.10;;;;;;4848942;29;20212;-82
2023/06/19 08:47:01;;;;;;;58.45;55.58;;;31.20;74.10;;;;;;4847483;29;20193;-82
2023/06/19 08:49:30;;;;;;;57.22;54.47;;;32.00;71.90;;;;;;4848849;29;20235;-83
2023/06/19 08:51:56;;;;;;;18.95;18.02;;;32.80;70.10;;;;;;4847604;29;20578;-83
2023/06/19 08:54:22;;;;;;;4.57;4.38;;;33.30;68.50;;;;;;4847736;29;20213;-82
2023/06/19 08:56:48;;;;;;;5.38;5.10;;;33.30;66.80;;;;;;4847611;29;20683;-82
2023/06/19 08:59:15;;;;;;;4.88;4.57;;;32.80;68.30;;;;;;4847881;29;20213;-82
2023/06/19 09:01:51;;;;;;;5.65;5.32;;;32.00;67.70;;;;;;4848050;29;20200;-82
2023/06/19 09:04:28;;;;;;;7.50;7.07;;;31.80;68.20;;;;;;4847214;29;20217;-81
2023/06/19 09:06:56;;;;;;;4.03;3.83;;;32.30;68.10;;;;;;4864107;29;20188;-82
2023/06/19 09:09:25;;;;;;;3.42;3.33;;;32.90;63.60;;;;;;4864219;29;20220;-82
2023/06/19 09:12:01;;;;;;;4.65;4.45;;;33.00;63.80;;;;;;4863201;29;20200;-82
2023/06/19 09:14:37;;;;;;;5.10;4.90;;;33.30;63.00;;;;;;4861430;24;20217;-85
2023/06/19 09:17:04;;;;;;;5.13;4.72;;;33.30;63.60;;;;;;4841730;29;20209;-84
2023/06/19 09:19:30;;;;;;;5.20;5.00;;;33.50;63.20;;;;;;4847103;29;20562;-84
2023/06/19 09:22:18;;;;;;;5.57;5.35;;;33.80;62.50;;;;;;4850384;29;20201;-85
2023/06/19 09:24:44;;;;;;;5.43;5.13;;;33.40;62.40;;;;;;4866582;29;20240;-84
2023/06/19 09:27:15;;;;;;;5.55;5.15;;;32.40;65.30;;;;;;4865474;29;20607;-84
2023/06/19 09:29:43;;;;;;;4.95;4.65;;;31.90;65.50;;;;;;4880895;29;20197;-85
2023/06/19 09:32:26;;;;;;;4.72;4.53;;;32.00;65.20;;;;;;4877832;29;20189;-85
2023/06/19 09:34:53;;;;;;;5.35;5.15;;;33.10;64.40;;;;;;4858306;29;20592;-83
2023/06/19 09:37:30;;;;;;;6.97;6.68;;;33.60;62.40;;;;;;4852555;29;20189;-84
2023/06/19 09:39:58;;;;;;;4.75;4.55;;;34.20;62.20;;;;;;4849715;29;20221;-84
2023/06/19 09:42:32;;;;;;;5.82;5.53;;;34.50;59.40;;;;;;4862819;29;20543;-85
2023/06/19 09:45:05;;;;;;;7.00;6.70;;;34.30;59.70;;;;;;4884770;29;20209;-84
2023/06/19 09:47:37;;;;;;;9.77;9.38;;;34.00;60.10;;;;;;4875294;29;20201;-84
2023/06/19 09:50:04;;;;;;;6.20;5.80;;;33.00;60.70;;;;;;4838653;29;20204;-84
2023/06/19 09:52:30;;;;;;;6.20;5.90;;;32.60;62.60;;;;;;4852011;29;20227;-85
2023/06/19 09:54:57;;;;;;;7.35;6.65;;;33.00;61.60;;;;;;4858247;29;20225;-84
2023/06/19 09:57:24;;;;;;;6.82;6.53;;;33.60;61.80;;;;;;4848022;29;20223;-84
2023/06/19 09:59:58;;;;;;;7.32;6.85;;;33.90;59.90;;;;;;4841567;29;20186;-84
2023/06/19 10:02:27;;;;;;;7.95;7.63;;;33.70;60.80;;;;;;4868819;29;20208;-84
2023/06/19 10:04:55;;;;;;;30.13;28.38;;;34.10;60.40;;;;;;4860956;29;20262;-83
2023/06/19 10:07:23;;;;;;;23.50;22.38;;;34.10;58.90;;;;;;4858955;29;20248;-84
2023/06/19 10:10:06;;;;;;;19.58;18.42;;;33.50;59.70;;;;;;4864842;29;20545;-83
2023/06/19 10:12:40;;;;;;;46.22;43.97;;;33.70;60.80;;;;;;4849034;29;20196;-84
2023/06/19 10:15:19;;;;;;;56.95;53.65;;;34.40;59.10;;;;;;4855569;29;20229;-82
2023/06/19 10:17:51;;;;;;;41.58;39.58;;;34.60;58.70;;;;;;4865675;29;20287;-84
2023/06/19 10:20:33;;;;;;;27.77;26.48;;;35.30;58.30;;;;;;4867022;29;20257;-83
2023/06/19 10:23:10;;;;;;;22.58;21.52;;;36.20;56.20;;;;;;4868001;29;20197;-84
2023/06/19 10:25:38;;;;;;;27.98;26.48;;;36.50;56.30;;;;;;4865793;29;20221;-83
2023/06/19 10:28:15;;;;;;;51.15;48.30;;;36.70;55.40;;;;;;4867766;29;20268;-84
2023/06/19 10:30:41;;;;;;;26.70;25.30;;;35.70;55.20;;;;;;4868192;29;20193;-84
2023/06/19 10:33:07;;;;;;;21.65;20.65;;;34.80;56.70;;;;;;4868080;29;20614;-84
2023/06/19 10:35:40;;;;;;;23.35;22.20;;;34.70;57.40;;;;;;4867645;29;20233;-83
2023/06/19 10:38:10;;;;;;;22.55;21.50;;;35.00;57.40;;;;;;4865878;29;20584;-84
2023/06/19 10:40:37;;;;;;;26.70;24.67;;;35.20;57.00;;;;;;4866610;29;20197;-84
2023/06/19 10:43:04;;;;;;;22.35;21.35;;;35.00;57.10;;;;;;4864079;29;20197;-84
2023/06/19 10:45:30;;;;;;;26.80;25.40;;;34.60;57.30;;;;;;4869609;29;20342;-84
2023/06/19 10:47:57;;;;;;;31.38;29.73;;;34.60;57.50;;;;;;4876937;29;20272;-84
2023/06/19 10:50:24;;;;;;;43.15;41.03;;;34.50;57.80;;;;;;4872942;29;20189;-85
2023/06/19 10:52:54;;;;;;;46.72;44.45;;;34.40;57.90;;;;;;4865933;29;20214;-86
2023/06/19 10:55:21;;;;;;;52.00;49.50;;;34.00;59.30;;;;;;4862212;29;20253;-84
2023/06/19 10:57:48;;;;;;;53.67;51.10;;;34.20;58.10;;;;;;4866001;29;20556;-84
2023/06/19 11:00:26;;;;;;;49.22;46.85;;;34.40;58.80;;;;;;4867421;29;20195;-86
2023/06/19 11:02:52;;;;;;;33.65;32.00;;;35.00;57.60;;;;;;4863736;29;20663;-85
2023/06/19 11:05:21;;;;;;;24.58;23.17;;;36.10;56.70;;;;;;4880484;29;20209;-85
2023/06/19 11:07:54;;;;;;;29.85;28.23;;;36.30;56.40;;;;;;4865844;29;20272;-84
2023/06/19 11:10:22;;;;;;;48.20;45.80;;;36.60;55.10;;;;;;4866141;29;20211;-85
2023/06/19 11:12:49;;;;;;;87.65;83.43;;;36.50;55.30;;;;;;4864112;29;20196;-86
2023/06/19 11:15:15;;;;;;;111.95;106.63;;;36.70;54.30;;;;;;4862007;29;20236;-84
2023/06/19 11:17:41;;;;;;;92.72;88.22;;;36.50;54.70;;;;;;4862062;29;20188;-81
2023/06/19 11:20:16;;;;;;;129.93;123.63;;;36.80;54.50;;;;;;4861687;29;20279;-81
2023/06/19 11:22:42;;;;;;;133.05;126.45;;;37.20;53.40;;;;;;4860059;29;20223;-80
2023/06/19 11:25:10;;;;;;;116.72;111.15;;;37.60;53.00;;;;;;4861511;29;20717;-82
2023/06/19 11:27:39;;;;;;;151.02;143.82;;;36.90;53.40;;;;;;4860760;29;20205;-81
2023/06/19 11:30:07;;;;;;;145.27;137.98;;;36.60;53.70;;;;;;4874179;29;20208;-81
2023/06/19 11:32:44;;;;;;;138.68;132.00;;;36.70;53.90;;;;;;4874630;29;20218;-81
2023/06/19 11:35:12;;;;;;;151.30;144.10;;;36.40;53.30;;;;;;4879573;29;20217;-82
2023/06/19 11:37:42;;;;;;;107.15;102.07;;;35.80;54.40;;;;;;4872542;29;20197;-81
2023/06/19 11:40:15;;;;;;;67.80;64.50;;;35.40;54.80;;;;;;4877293;29;20196;-81
2023/06/19 11:42:54;;;;;;;28.48;27.10;;;35.20;54.50;;;;;;4866969;29;20220;-81
2023/06/19 11:45:20;;;;;;;17.52;16.73;;;34.60;55.90;;;;;;4861661;29;20686;-82
2023/06/19 11:47:46;;;;;;;22.15;21.05;;;34.50;56.30;;;;;;4861350;29;20204;-82
2023/06/19 11:50:14;;;;;;;27.10;25.65;;;34.40;56.30;;;;;;4864854;29;20284;-82
2023/06/19 11:52:41;;;;;;;34.67;33.05;;;34.10;56.80;;;;;;4864036;29;20658;-80
2023/06/19 11:55:07;;;;;;;29.25;27.75;;;34.10;57.60;;;;;;4849154;29;20715;-79
2023/06/19 11:57:33;;;;;;;48.03;45.72;;;34.00;57.10;;;;;;4867660;29;20184;-80
2023/06/19 11:59:59;;;;;;;42.55;40.28;;;34.20;57.70;;;;;;4877568;29;20201;-79
2023/06/19 12:02:25;;;;;;;31.60;30.10;;;34.40;56.90;;;;;;4872667;29;20177;-80
2023/06/19 12:04:50;;;;;;;51.28;48.67;;;34.30;57.00;;;;;;4862705;29;20224;-82
2023/06/19 12:07:16;;;;;;;67.95;64.68;;;33.90;57.30;;;;;;4860540;29;20200;-81
2023/06/19 12:09:43;;;;;;;51.53;49.00;;;33.90;58.10;;;;;;4861807;29;20196;-81
2023/06/19 12:12:09;;;;;;;48.72;46.40;;;34.20;57.20;;;;;;4861582;29;20199;-81
2023/06/19 12:14:35;;;;;;;42.47;40.35;;;34.30;57.30;;;;;;4864763;29;20220;-80
2023/06/19 12:17:01;;;;;;;19.05;18.00;;;35.30;56.30;;;;;;4850905;29;20277;-81
2023/06/19 12:19:30;;;;;;;25.33;23.90;;;35.90;54.60;;;;;;4847853;29;20232;-81
2023/06/19 12:21:55;;;;;;;31.17;29.50;;;35.60;55.30;;;;;;4862016;29;20185;-82
2023/06/19 12:24:21;;;;;;;24.02;22.65;;;35.30;55.60;;;;;;4874519;29;20228;-81
2023/06/19 12:26:47;;;;;;;19.27;18.33;;;35.10;55.50;;;;;;4875122;29;20213;-81
2023/06/19 12:29:13;;;;;;;21.13;20.15;;;34.70;56.20;;;;;;4863131;29;20204;-81
2023/06/19 12:31:39;;;;;;;40.00;38.00;;;34.40;56.40;;;;;;4861621;29;20196;-81
2023/06/19 12:34:07;;;;;;;40.92;38.97;;;34.10;58.20;;;;;;4852447;29;20244;-80
2023/06/19 12:36:33;;;;;;;43.78;41.55;;;33.60;58.20;;;;;;4854533;29;20243;-80
2023/06/19 12:39:00;;;;;;;27.90;26.55;;;33.30;59.20;;;;;;4844205;29;20189;-80
2023/06/19 12:41:26;;;;;;;42.25;40.00;;;33.40;59.30;;;;;;4861509;29;20197;-82
2023/06/19 12:43:52;;;;;;;65.97;62.75;;;34.30;58.40;;;;;;4860028;29;20200;-81
2023/06/19 12:46:17;;;;;;;50.47;48.00;;;34.20;58.50;;;;;;4863856;29;20272;-81
2023/06/19 12:48:43;;;;;;;40.00;38.03;;;33.70;59.20;;;;;;4863555;29;20208;-81
2023/06/19 12:51:09;;;;;;;24.52;23.30;;;33.40;59.70;;;;;;4847692;29;20196;-81
2023/06/19 12:53:35;;;;;;;20.05;19.05;;;33.30;59.70;;;;;;4864249;29;20686;-81
2023/06/19 12:56:00;;;;;;;32.35;30.45;;;33.80;59.50;;;;;;4863716;29;21783;-81
2023/06/19 12:58:27;;;;;;;49.65;47.15;;;34.80;59.00;;;;;;4847056;29;20197;-82
2023/06/19 13:00:53;;;;;;;40.92;38.47;;;35.20;57.50;;;;;;4863645;29;20189;-81
2023/06/19 13:03:19;;;;;;;26.02;24.73;;;35.30;56.60;;;;;;4864001;29;20296;-81
2023/06/19 13:05:48;;;;;;;22.55;21.25;;;35.30;57.30;;;;;;4864256;29;20228;-81
2023/06/19 13:08:15;;;;;;;21.40;20.00;;;35.50;55.80;;;;;;4865368;29;20234;-81
2023/06/19 13:10:41;;;;;;;27.48;26.02;;;36.00;56.30;;;;;;4855198;29;20217;-79
2023/06/19 13:13:07;;;;;;;57.70;54.85;;;36.80;53.70;;;;;;4868189;29;20196;-80
2023/06/19 13:15:33;;;;;;;113.65;108.25;;;36.70;53.50;;;;;;4864381;29;20228;-80
2023/06/19 13:17:59;;;;;;;144.93;137.95;;;36.90;52.50;;;;;;4863979;29;20197;-79
2023/06/19 13:20:25;;;;;;;94.13;89.65;;;38.40;51.70;;;;;;4866389;29;20192;-79
2023/06/19 13:22:52;;;;;;;7.68;7.25;;;39.70;50.50;;;;;;4865480;29;20213;-80
2023/06/19 13:25:19;;;;;;;3.70;3.60;;;39.40;50.10;;;;;;4847474;29;20217;-79
2023/06/19 13:27:44;;;;;;;4.63;4.32;;;39.00;50.90;;;;;;4864158;29;20226;-80
2023/06/19 13:30:11;;;;;;;5.28;5.07;;;39.50;49.40;;;;;;4864858;29;20188;-80
2023/06/19 13:32:37;;;;;;;5.57;5.28;;;39.70;49.60;;;;;;4849578;29;20208;-80
2023/06/19 13:35:05;;;;;;;5.80;5.50;;;39.20;49.70;;;;;;4859504;29;20213;-81
2023/06/19 13:37:31;;;;;;;11.13;10.63;;;39.60;49.20;;;;;;4846575;29;20193;-80
2023/06/19 13:39:57;;;;;;;13.38;12.27;;;39.90;49.00;;;;;;4846854;29;20189;-82
2023/06/19 13:42:24;;;;;;;9.02;8.57;;;40.40;48.50;;;;;;4864879;29;20197;-80
2023/06/19 13:44:50;;;;;;;6.80;6.22;;;41.50;46.10;;;;;;4864415;29;20690;-79
2023/06/19 13:47:15;;;;;;;4.70;4.30;;;41.90;45.20;;;;;;4846842;29;20203;-80
2023/06/19 13:49:41;;;;;;;4.68;4.47;;;41.80;44.70;;;;;;4870082;29;20203;-79
2023/06/19 13:52:07;;;;;;;5.63;5.32;;;41.80;44.30;;;;;;4881232;29;20204;-79
2023/06/19 13:54:33;;;;;;;5.47;5.25;;;41.00;44.80;;;;;;4862096;29;20216;-80
2023/06/19 13:56:59;;;;;;;6.65;6.30;;;41.00;45.40;;;;;;4873029;29;20646;-80
2023/06/19 13:59:25;;;;;;;6.07;5.72;;;41.00;45.20;;;;;;4864453;29;20276;-80
2023/06/19 14:01:51;;;;;;;6.78;6.22;;;40.60;45.70;;;;;;4876212;29;20193;-80
2023/06/19 14:04:16;;;;;;;7.80;7.45;;;40.70;45.20;;;;;;4852536;29;20209;-80
2023/06/19 14:06:43;;;;;;;7.75;7.22;;;40.50;45.70;;;;;;4863580;29;20280;-80
2023/06/19 14:09:09;;;;;;;8.38;7.85;;;40.80;46.20;;;;;;4851203;29;20665;-80
2023/06/19 14:11:35;;;;;;;9.77;9.18;;;40.40;46.40;;;;;;4872706;29;20199;-80
2023/06/19 14:14:01;;;;;;;9.70;9.02;;;40.00;46.20;;;;;;4850274;29;20319;-80
2023/06/19 14:16:27;;;;;;;12.68;11.88;;;39.30;47.00;;;;;;4847484;29;20238;-80
2023/06/19 14:18:52;;;;;;;12.27;11.68;;;39.60;47.50;;;;;;4872672;29;20284;-80
2023/06/19 14:21:18;;;;;;;10.52;10.02;;;40.10;46.80;;;;;;4875297;29;20201;-80
2023/06/19 14:23:44;;;;;;;10.15;9.73;;;40.20;45.10;;;;;;4870203;29;20237;-80
2023/06/19 14:26:11;;;;;;;11.48;10.98;;;40.50;45.90;;;;;;4873320;29;20581;-81
2023/06/19 14:28:38;;;;;;;7.93;7.45;;;41.10;45.20;;;;;;4865736;29;20612;-81
2023/06/19 14:31:04;;;;;;;8.45;8.00;;;41.40;44.20;;;;;;4849448;29;20660;-80
2023/06/19 14:33:32;;;;;;;8.82;8.32;;;41.00;44.20;;;;;;4864846;29;20189;-80
2023/06/19 14:36:02;;;;;;;6.55;6.25;;;40.80;44.80;;;;;;4847676;29;20296;-80
2023/06/19 14:38:31;;;;;;;5.70;5.35;;;41.20;44.20;;;;;;4848687;29;20574;-79
2023/06/19 14:41:01;;;;;;;9.48;9.05;;;41.30;43.60;;;;;;4851249;29;20650;-80
2023/06/19 14:43:27;;;;;;;5.38;4.97;;;40.70;43.70;;;;;;4853144;29;20193;-80
2023/06/19 14:45:52;;;;;;;10.18;9.48;;;40.80;44.00;;;;;;4858259;29;20770;-79
2023/06/19 14:48:18;;;;;;;10.73;10.20;;;40.10;44.00;;;;;;4854453;29;20193;-80
2023/06/19 14:50:44;;;;;;;24.38;22.98;;;39.00;45.40;;;;;;4845672;29;20189;-80
2023/06/19 14:53:10;;;;;;;31.52;29.98;;;38.40;46.20;;;;;;4843879;29;20224;-80
2023/06/19 14:55:38;;;;;;;9.20;8.48;;;38.20;46.60;;;;;;4859767;29;20220;-80
2023/06/19 14:58:05;;;;;;;6.40;5.63;;;37.90;47.20;;;;;;4860849;29;20719;-80
2023/06/19 15:00:31;;;;;;;13.98;13.27;;;37.20;48.10;;;;;;4860486;29;20252;-80
2023/06/19 15:02:56;;;;;;;11.23;10.63;;;36.70;49.30;;;;;;4861922;29;20232;-80
2023/06/19 15:05:22;;;;;;;15.75;15.00;;;36.90;49.10;;;;;;4845095;29;20671;-81
2023/06/19 15:07:48;;;;;;;11.30;10.38;;;37.10;49.20;;;;;;4849722;29;20215;-80
2023/06/19 15:10:14;;;;;;;8.80;8.15;;;37.50;48.60;;;;;;4860788;29;20685;-81
2023/06/19 15:12:40;;;;;;;6.50;6.05;;;37.70;47.50;;;;;;4872264;29;20265;-80
2023/06/19 15:15:06;;;;;;;4.65;4.35;;;37.80;48.00;;;;;;4848756;29;20332;-79
2023/06/19 15:17:32;;;;;;;6.07;5.63;;;37.60;47.50;;;;;;4861518;29;20252;-80
2023/06/19 15:19:58;;;;;;;10.13;9.63;;;37.30;48.60;;;;;;4866954;29;20193;-81
2023/06/19 15:22:23;;;;;;;20.73;19.73;;;36.70;49.00;;;;;;4851400;29;20265;-80
2023/06/19 15:24:49;;;;;;;36.20;34.40;;;36.40;49.70;;;;;;4862974;29;20245;-78
2023/06/19 15:27:15;;;;;;;36.03;34.30;;;36.80;49.60;;;;;;4859175;29;20209;-81
2023/06/19 15:29:41;;;;;;;9.77;8.95;;;37.40;49.00;;;;;;4868541;29;20208;-80